createdAt,value
2018-06-24T00:00:30.311Z,62.20
2018-06-24T00:02:58.762Z,62.20
2018-06-24T00:05:27.221Z,62.40
2018-06-24T00:07:55.720Z,62.70
2018-06-24T00:10:24.209Z,62.90
2018-06-24T00:12:52.672Z,62.70
2018-06-24T00:15:21.163Z,62.60
2018-06-24T00:17:49.788Z,63.10
2018-06-24T00:20:18.262Z,63.30
2018-06-24T00:22:46.865Z,63.80
2018-06-24T00:25:16.080Z,64.70
2018-06-24T00:27:44.577Z,65.50
2018-06-24T00:30:13.113Z,66.10
2018-06-24T00:32:41.569Z,66.50
2018-06-24T00:35:10.226Z,66.30
2018-06-24T00:37:38.692Z,66.00
2018-06-24T00:40:07.225Z,66.40
2018-06-24T00:42:35.700Z,66.70
2018-06-24T00:45:04.217Z,66.50
2018-06-24T00:47:32.698Z,66.20
2018-06-24T00:50:01.189Z,66.10
2018-06-24T00:54:58.030Z,68.20
2018-06-24T00:57:26.505Z,67.70
2018-06-24T01:00:07.122Z,68.50
2018-06-24T01:02:35.608Z,70.30
2018-06-24T01:05:04.134Z,67.20
2018-06-24T01:07:32.837Z,65.20
2018-06-24T01:10:01.325Z,64.80
2018-06-24T01:14:58.392Z,64.90
2018-06-24T01:19:56.497Z,64.20
2018-06-24T01:22:25.261Z,63.80
2018-06-24T01:24:55.617Z,64.40
2018-06-24T01:27:25.009Z,64.20
2018-06-24T01:29:53.505Z,64.90
2018-06-24T01:32:22.665Z,65.10
2018-06-24T01:34:51.135Z,64.10
2018-06-24T01:37:19.571Z,63.90
2018-06-24T01:39:48.021Z,64.60
2018-06-24T01:42:16.501Z,65.20
2018-06-24T01:47:13.141Z,64.90
2018-06-24T01:49:41.624Z,64.90
2018-06-24T01:52:10.200Z,65.40
2018-06-24T01:54:38.642Z,65.50
2018-06-24T01:57:07.301Z,65.90
2018-06-24T01:59:35.760Z,65.70
2018-06-24T02:02:04.398Z,65.30
2018-06-24T02:07:01.021Z,64.30
2018-06-24T02:09:29.537Z,63.90
2018-06-24T02:11:58.049Z,62.90
2018-06-24T02:14:26.932Z,63.10
2018-06-24T02:16:55.428Z,62.90
2018-06-24T02:19:23.906Z,62.80
2018-06-24T02:21:52.373Z,63.00
2018-06-24T02:24:20.816Z,63.40
2018-06-24T02:26:50.075Z,63.50
2018-06-24T02:29:18.536Z,62.80
2018-06-24T02:31:47.004Z,62.90
2018-06-24T02:34:15.469Z,63.40
2018-06-24T02:38:13.103Z,63.10
2018-06-24T02:40:41.585Z,63.20
2018-06-24T02:43:10.066Z,62.60
2018-06-24T02:45:38.525Z,62.70
2018-06-24T02:48:07.004Z,63.20
2018-06-24T02:50:36.459Z,63.20
2018-06-24T02:53:04.941Z,63.20
2018-06-24T02:55:33.409Z,63.50
2018-06-24T02:58:01.898Z,63.50
2018-06-24T03:00:30.669Z,63.30
2018-06-24T03:02:59.157Z,63.60
2018-06-24T03:05:27.620Z,63.20
2018-06-24T03:07:56.105Z,62.80
2018-06-24T03:12:53.066Z,61.90
2018-06-24T03:15:21.512Z,61.90
2018-06-24T03:17:50.081Z,62.30
2018-06-24T03:20:18.601Z,62.00
2018-06-24T03:22:47.046Z,62.00
2018-06-24T03:25:15.542Z,62.10
2018-06-24T03:27:44.069Z,62.30
2018-06-24T03:30:12.509Z,61.90
2018-06-24T03:32:40.956Z,62.20
2018-06-24T03:35:09.446Z,61.80
2018-06-24T03:37:38.813Z,62.00
2018-06-24T03:40:07.292Z,62.20
2018-06-24T03:42:35.745Z,62.30
2018-06-24T03:45:04.265Z,61.90
2018-06-24T03:47:32.759Z,62.10
2018-06-24T03:50:01.243Z,62.20
2018-06-24T03:52:29.705Z,62.50
2018-06-24T03:54:58.172Z,62.60
2018-06-24T03:57:26.645Z,62.60
2018-06-24T03:59:55.129Z,62.80
2018-06-24T04:02:23.625Z,62.70
2018-06-24T04:04:52.156Z,62.70
2018-06-24T04:07:20.562Z,62.60
2018-06-24T04:09:49.073Z,63.50
2018-06-24T04:12:18.305Z,63.60
2018-06-24T04:14:47.866Z,64.60
2018-06-24T04:17:16.325Z,64.80
2018-06-24T04:19:44.837Z,65.10
2018-06-24T04:22:13.321Z,66.10
2018-06-24T04:24:41.797Z,66.20
2018-06-24T04:27:10.245Z,66.60
2018-06-24T04:29:38.721Z,66.60
2018-06-24T04:32:07.198Z,66.20
2018-06-24T04:34:35.765Z,66.00
2018-06-24T04:37:04.221Z,66.30
2018-06-24T04:39:32.713Z,66.50
2018-06-24T04:42:01.998Z,66.30
2018-06-24T04:44:30.445Z,66.50
2018-06-24T04:46:59.766Z,66.70
2018-06-24T04:49:28.241Z,67.20
2018-06-24T04:51:56.697Z,66.90
2018-06-24T04:54:25.133Z,66.80
2018-06-24T04:56:53.581Z,66.90
2018-06-24T04:59:22.045Z,68.20
2018-06-24T05:01:50.549Z,69.50
2018-06-24T05:04:19.854Z,70.30
2018-06-24T05:06:48.386Z,69.90
2018-06-24T05:09:16.847Z,70.30
2018-06-24T05:11:45.313Z,70.40
2018-06-24T05:14:13.815Z,70.30
2018-06-24T05:16:42.283Z,70.30
2018-06-24T05:19:10.757Z,70.80
2018-06-24T05:21:39.229Z,71.60
2018-06-24T05:29:04.884Z,75.30
2018-06-24T05:31:33.329Z,75.10
2018-06-24T05:34:01.801Z,76.10
2018-06-24T05:36:30.329Z,76.10
2018-06-24T05:38:58.773Z,76.10
2018-06-24T05:41:27.241Z,77.60
2018-06-24T05:43:55.698Z,78.90
2018-06-24T05:46:24.185Z,78.80
2018-06-24T05:48:52.704Z,78.60
2018-06-24T05:51:21.113Z,79.70
2018-06-24T05:53:49.613Z,81.40
2018-06-24T05:56:18.101Z,82.10
2018-06-24T05:58:46.593Z,85.60
2018-06-24T06:01:15.050Z,87.60
2018-06-24T06:03:43.648Z,87.00
2018-06-24T06:06:13.010Z,89.90
2018-06-24T06:08:41.541Z,90.30
2018-06-24T06:11:10.025Z,90.90
2018-06-24T06:13:38.609Z,90.80
2018-06-24T06:16:08.125Z,91.00
2018-06-24T06:18:36.685Z,90.40
2018-06-24T06:21:05.242Z,90.50
2018-06-24T06:23:33.689Z,91.30
2018-06-24T06:26:02.171Z,91.00
2018-06-24T06:28:30.785Z,91.40
2018-06-24T06:31:00.089Z,90.80
2018-06-24T06:33:28.619Z,91.10
2018-06-24T06:35:57.136Z,90.20
2018-06-24T06:40:53.762Z,87.60
2018-06-24T06:43:22.221Z,86.90
2018-06-24T06:45:50.709Z,84.00
2018-06-24T06:48:19.229Z,83.80
2018-06-24T06:50:47.689Z,84.80
2018-06-24T06:53:16.225Z,84.20
2018-06-24T06:55:44.738Z,81.90
2018-06-24T06:58:13.201Z,81.40
2018-06-24T07:00:41.670Z,79.90
2018-06-24T07:03:11.772Z,77.40
2018-06-24T07:05:40.994Z,76.10
2018-06-24T07:08:09.488Z,75.60
2018-06-24T07:10:37.985Z,75.20
2018-06-24T07:13:06.528Z,74.50
2018-06-24T07:15:34.937Z,72.00
2018-06-24T07:18:04.913Z,70.50
2018-06-24T07:20:33.382Z,70.30
2018-06-24T07:23:03.618Z,69.60
2018-06-24T07:25:32.121Z,69.20
2018-06-24T07:28:00.585Z,69.60
2018-06-24T07:30:29.074Z,71.50
2018-06-24T07:32:57.639Z,71.30
2018-06-24T07:35:26.118Z,70.30
2018-06-24T07:40:23.988Z,69.90
2018-06-24T07:45:20.732Z,69.10
2018-06-24T07:47:49.445Z,69.20
2018-06-24T07:50:18.909Z,69.70
2018-06-24T07:52:47.389Z,70.10
2018-06-24T07:55:15.854Z,70.40
2018-06-24T07:57:46.069Z,69.80
2018-06-24T08:00:14.545Z,70.50
2018-06-24T08:02:42.984Z,72.00
2018-06-24T08:05:11.503Z,69.80
2018-06-24T08:07:39.962Z,70.40
2018-06-24T08:10:08.457Z,69.40
2018-06-24T08:12:36.984Z,69.60
2018-06-24T08:15:07.700Z,67.90
2018-06-24T08:17:36.241Z,66.50
2018-06-24T08:20:06.868Z,66.00
2018-06-24T08:22:35.651Z,66.30
2018-06-24T08:25:04.089Z,65.10
2018-06-24T08:27:35.415Z,65.70
2018-06-24T08:30:04.022Z,65.90
2018-06-24T08:32:32.497Z,64.10
2018-06-24T08:35:01.045Z,64.40
2018-06-24T08:37:29.505Z,63.50
2018-06-24T08:42:26.186Z,64.50
2018-06-24T08:44:54.785Z,64.60
2018-06-24T08:47:23.237Z,64.50
2018-06-24T08:49:52.150Z,64.80
2018-06-24T08:52:20.636Z,64.40
2018-06-24T08:54:49.122Z,65.20
2018-06-24T08:57:17.599Z,64.00
2018-06-24T08:59:46.438Z,63.40
2018-06-24T09:02:15.020Z,64.50
2018-06-24T09:04:43.485Z,62.70
2018-06-24T09:07:11.979Z,61.50
2018-06-24T09:09:40.458Z,61.30
2018-06-24T09:12:08.941Z,60.80
2018-06-24T09:14:37.400Z,61.00
2018-06-24T09:17:05.917Z,61.30
2018-06-24T09:22:02.614Z,62.00
2018-06-24T09:24:31.097Z,61.80
2018-06-24T09:26:59.592Z,64.00
2018-06-24T09:29:34.561Z,62.40
2018-06-24T09:32:03.094Z,63.10
2018-06-24T09:34:31.879Z,59.30
2018-06-24T09:37:00.347Z,59.80
2018-06-24T09:39:28.889Z,60.70
2018-06-24T09:41:57.366Z,59.70
2018-06-24T09:44:25.857Z,60.20
2018-06-24T09:46:54.313Z,58.40
2018-06-24T09:49:22.777Z,57.20
2018-06-24T09:51:51.261Z,57.00
2018-06-24T09:54:19.753Z,56.80
2018-06-24T09:56:48.265Z,58.40
2018-06-24T09:59:16.737Z,59.30
2018-06-24T10:01:45.213Z,59.60
2018-06-24T10:04:13.700Z,59.90
2018-06-24T10:06:42.205Z,59.60
2018-06-24T10:09:11.597Z,60.70
2018-06-24T10:11:42.457Z,60.20
2018-06-24T10:14:10.982Z,59.10
2018-06-24T10:16:39.453Z,56.80
2018-06-24T10:19:08.398Z,56.90
2018-06-24T10:21:37.023Z,56.60
2018-06-24T10:24:05.657Z,55.20
2018-06-24T10:26:34.130Z,54.30
2018-06-24T10:29:02.701Z,54.70
2018-06-24T10:31:31.206Z,55.10
2018-06-24T10:33:59.905Z,53.90
2018-06-24T10:36:28.401Z,54.10
2018-06-24T10:38:57.049Z,53.80
2018-06-24T10:41:25.541Z,54.30
2018-06-24T10:43:54.044Z,54.10
2018-06-24T10:46:24.572Z,54.40
2018-06-24T10:51:21.313Z,54.50
2018-06-24T10:53:50.233Z,54.10
2018-06-24T10:56:18.709Z,54.40
2018-06-24T10:58:47.193Z,53.60
2018-06-24T11:01:15.741Z,52.80
2018-06-24T11:06:12.526Z,52.70
2018-06-24T11:08:41.191Z,53.00
2018-06-24T11:11:09.869Z,52.00
2018-06-24T11:13:38.673Z,49.90
2018-06-24T11:18:35.597Z,49.20
2018-06-24T11:21:04.174Z,49.00
2018-06-24T11:23:32.877Z,48.50
2018-06-24T11:26:01.421Z,49.90
2018-06-24T11:28:30.743Z,48.60
2018-06-24T11:31:00.277Z,48.60
2018-06-24T11:33:28.773Z,46.50
2018-06-24T11:35:57.341Z,44.90
2018-06-24T11:38:25.817Z,46.20
2018-06-24T11:40:54.289Z,45.40
2018-06-24T11:43:22.921Z,45.40
2018-06-24T11:45:51.402Z,43.00
2018-06-24T11:50:48.897Z,44.70
2018-06-24T11:53:17.406Z,45.20
2018-06-24T11:55:46.133Z,45.00
2018-06-24T11:58:14.897Z,43.60
2018-06-24T12:00:43.381Z,44.30
2018-06-24T12:03:11.876Z,44.00
2018-06-24T12:05:40.340Z,44.10
2018-06-24T12:08:08.813Z,45.30
2018-06-24T12:10:37.310Z,44.90
2018-06-24T12:13:06.122Z,44.30
2018-06-24T12:15:34.813Z,44.00
2018-06-24T12:18:03.342Z,43.10
2018-06-24T12:20:31.886Z,43.60
2018-06-24T12:23:00.745Z,42.60
2018-06-24T12:25:29.329Z,42.80
2018-06-24T12:27:57.825Z,42.60
2018-06-24T12:30:27.586Z,43.60
2018-06-24T12:32:56.229Z,43.70
2018-06-24T12:35:24.698Z,44.10
2018-06-24T12:37:53.202Z,44.40
2018-06-24T12:40:27.139Z,44.70
2018-06-24T12:42:55.731Z,45.10
2018-06-24T12:45:24.355Z,45.20
2018-06-24T12:47:52.849Z,44.00
2018-06-24T12:59:02.199Z,43.60
2018-06-24T13:01:30.610Z,40.80
2018-06-24T13:03:59.145Z,39.20
2018-06-24T13:06:27.669Z,39.20
2018-06-24T13:08:56.709Z,40.10
2018-06-24T13:11:25.673Z,40.00
2018-06-24T13:13:54.253Z,39.20
2018-06-24T13:16:23.969Z,39.00
2018-06-24T13:18:52.460Z,38.80
2018-06-24T13:21:21.027Z,36.70
2018-06-24T13:23:49.506Z,37.00
2018-06-24T13:26:18.045Z,36.50
2018-06-24T13:28:46.562Z,34.90
2018-06-24T13:31:15.069Z,36.20
2018-06-24T13:33:43.656Z,37.50
2018-06-24T13:36:12.298Z,37.20
2018-06-24T13:38:40.917Z,35.50
2018-06-24T13:41:09.493Z,35.60
2018-06-24T13:43:38.052Z,35.50
2018-06-24T13:46:06.646Z,36.10
2018-06-24T13:48:35.273Z,37.20
2018-06-24T13:51:04.190Z,37.50
2018-06-24T13:53:32.693Z,37.80
2018-06-24T13:56:01.238Z,37.50
2018-06-24T13:58:29.745Z,38.00
2018-06-24T14:00:58.332Z,38.00
2018-06-24T14:03:26.901Z,38.00
2018-06-24T14:05:55.412Z,37.90
2018-06-24T14:08:23.958Z,37.60
2018-06-24T14:10:52.469Z,37.70
2018-06-24T14:13:20.985Z,38.10
2018-06-24T14:15:49.514Z,37.90
2018-06-24T14:18:18.021Z,38.30
2018-06-24T14:20:46.578Z,38.30
2018-06-24T14:23:15.585Z,38.60
2018-06-24T14:25:44.046Z,37.50
2018-06-24T14:28:12.590Z,38.70
2018-06-24T14:30:41.097Z,39.00
2018-06-24T14:33:09.613Z,39.00
2018-06-24T14:35:38.149Z,39.00
2018-06-24T14:38:06.692Z,38.10
2018-06-24T14:40:35.230Z,38.30
2018-06-24T14:43:03.742Z,39.20
2018-06-24T14:45:32.329Z,39.30
2018-06-24T14:48:00.854Z,39.40
2018-06-24T14:50:29.347Z,38.90
2018-06-24T14:52:57.856Z,39.20
2018-06-24T14:55:26.385Z,39.80
2018-06-24T14:57:54.916Z,40.00
2018-06-24T15:00:23.462Z,40.00
2018-06-24T15:02:51.969Z,39.60
2018-06-24T15:05:20.489Z,40.10
2018-06-24T15:07:49.012Z,40.60
2018-06-24T15:10:17.533Z,41.50
2018-06-24T15:12:46.049Z,41.70
2018-06-24T15:15:14.566Z,41.30
2018-06-24T15:17:43.120Z,41.60
2018-06-24T15:20:11.629Z,41.20
2018-06-24T15:22:40.188Z,41.80
2018-06-24T15:25:08.709Z,40.50
2018-06-24T15:27:37.309Z,40.80
2018-06-24T15:30:05.847Z,41.00
2018-06-24T15:32:34.346Z,41.00
2018-06-24T15:35:02.898Z,40.90
2018-06-24T15:37:31.420Z,40.90
2018-06-24T15:39:59.939Z,41.30
2018-06-24T15:42:28.493Z,40.90
2018-06-24T15:44:57.022Z,41.20
2018-06-24T15:47:25.574Z,41.20
2018-06-24T15:49:54.081Z,40.80
2018-06-24T15:52:22.585Z,40.90
2018-06-24T15:57:19.821Z,39.60
2018-06-24T15:59:48.329Z,40.00
2018-06-24T16:02:16.849Z,39.40
2018-06-24T16:04:45.389Z,40.00
2018-06-24T16:07:13.957Z,40.50
2018-06-24T16:09:42.477Z,40.60
2018-06-24T16:12:11.029Z,41.10
2018-06-24T16:14:39.544Z,41.60
2018-06-24T16:17:08.166Z,41.00
2018-06-24T16:19:36.699Z,41.30
2018-06-24T16:22:05.345Z,41.60
2018-06-24T16:24:33.892Z,42.00
2018-06-24T16:27:02.422Z,42.20
2018-06-24T16:29:30.945Z,42.70
2018-06-24T16:31:59.830Z,42.80
2018-06-24T16:34:28.345Z,42.80
2018-06-24T16:36:56.877Z,43.10
2018-06-24T16:41:53.738Z,43.50
2018-06-24T16:44:22.269Z,43.20
2018-06-24T16:46:50.939Z,44.10
2018-06-24T16:49:19.722Z,43.60
2018-06-24T16:51:48.241Z,44.30
2018-06-24T16:54:16.757Z,44.70
2018-06-24T16:56:45.462Z,45.20
2018-06-24T16:59:13.990Z,45.60
2018-06-24T17:01:42.491Z,46.00
2018-06-24T17:04:11.017Z,46.40
2018-06-24T17:06:39.533Z,46.60
2018-06-24T17:09:09.401Z,46.80
2018-06-24T17:11:38.386Z,46.90
2018-06-24T17:14:06.905Z,47.10
2018-06-24T17:16:36.173Z,47.50
2018-06-24T17:19:05.108Z,47.80
2018-06-24T17:21:33.877Z,47.90
2018-06-24T17:24:02.401Z,47.80
2018-06-24T17:26:30.933Z,48.00
2018-06-24T17:28:59.445Z,48.10
2018-06-24T17:31:27.945Z,48.40
2018-06-24T17:33:56.449Z,48.40
2018-06-24T17:36:24.994Z,48.30
2018-06-24T17:38:53.534Z,48.50
2018-06-24T17:41:22.101Z,48.60
2018-06-24T17:43:50.622Z,48.50
2018-06-24T17:46:19.138Z,61.70
2018-06-24T17:48:47.645Z,51.20
2018-06-24T17:51:16.195Z,40.10
2018-06-24T17:53:45.025Z,32.80
2018-06-24T17:56:13.570Z,30.50
2018-06-24T17:58:42.097Z,27.40
2018-06-24T18:01:10.681Z,23.00
2018-06-24T18:06:07.345Z,21.90
2018-06-24T18:08:35.862Z,21.20
2018-06-24T18:11:04.459Z,20.40
2018-06-24T18:13:33.093Z,20.70
2018-06-24T18:16:01.607Z,22.60
2018-06-24T18:18:30.175Z,23.60
2018-06-24T18:20:58.693Z,24.80
2018-06-24T18:23:27.221Z,24.60
2018-06-24T18:25:55.749Z,25.90
2018-06-24T18:28:24.333Z,26.60
2018-06-24T18:30:52.861Z,27.90
2018-06-24T18:35:49.557Z,31.10
2018-06-24T18:38:18.069Z,20.60
2018-06-24T18:40:46.613Z,21.30
2018-06-24T18:43:15.125Z,22.90
2018-06-24T18:45:43.633Z,24.80
2018-06-24T18:48:12.134Z,27.00
2018-06-24T18:50:40.667Z,28.50
2018-06-24T18:53:09.167Z,28.90
2018-06-24T18:55:37.674Z,30.60
2018-06-24T18:58:06.933Z,31.30
2018-06-24T19:00:35.466Z,43.50
2018-06-24T19:03:04.176Z,39.70
2018-06-24T19:05:32.610Z,35.60
2018-06-24T19:08:01.112Z,29.00
2018-06-24T19:12:57.802Z,24.10
2018-06-24T19:15:26.349Z,23.00
2018-06-24T19:17:54.870Z,19.40
2018-06-24T19:20:23.421Z,19.50
2018-06-24T19:22:51.929Z,20.80
2018-06-24T19:25:20.527Z,22.30
2018-06-24T19:30:17.177Z,25.10
2018-06-24T19:32:45.730Z,27.60
2018-06-24T19:35:14.222Z,29.40
2018-06-24T19:37:42.766Z,31.70
2018-06-24T19:40:11.291Z,34.50
2018-06-24T19:42:39.796Z,36.00
2018-06-24T19:45:08.298Z,38.00
2018-06-24T19:47:36.817Z,38.70
2018-06-24T19:52:33.490Z,42.00
2018-06-24T19:55:02.002Z,42.80
2018-06-24T19:57:30.541Z,44.00
2018-06-24T19:59:59.084Z,45.20
2018-06-24T20:02:27.621Z,46.10
2018-06-24T20:04:56.120Z,45.80
2018-06-24T20:07:24.653Z,46.20
2018-06-24T20:09:53.165Z,46.80
2018-06-24T20:12:21.660Z,47.20
2018-06-24T20:14:50.214Z,47.80
2018-06-24T20:17:18.748Z,48.30
2018-06-24T20:19:47.324Z,48.70
2018-06-24T20:22:15.849Z,49.60
2018-06-24T20:27:12.801Z,50.10
2018-06-24T20:29:41.360Z,49.60
2018-06-24T20:32:09.915Z,49.90
2018-06-24T20:34:39.071Z,49.70
2018-06-24T20:37:07.646Z,50.20
2018-06-24T20:39:36.150Z,50.80
2018-06-24T20:42:04.722Z,50.40
2018-06-24T20:44:33.233Z,51.30
2018-06-24T20:47:02.013Z,51.60
2018-06-24T20:49:30.553Z,51.60
2018-06-24T20:51:59.902Z,51.60
2018-06-24T20:54:28.575Z,51.80
2018-06-24T20:56:57.132Z,51.70
2018-06-24T20:59:25.660Z,51.90
2018-06-24T21:01:54.173Z,52.30
2018-06-24T21:04:22.685Z,52.60
2018-06-24T21:06:51.202Z,53.20
2018-06-24T21:09:19.717Z,53.10
2018-06-24T21:11:48.256Z,53.30
2018-06-24T21:14:16.785Z,53.70
2018-06-24T21:16:45.281Z,54.10
2018-06-24T21:19:13.814Z,54.50
2018-06-24T21:21:42.325Z,54.80
2018-06-24T21:24:10.909Z,55.20
2018-06-24T21:26:39.414Z,55.60
2018-06-24T21:29:07.905Z,55.60
2018-06-24T21:31:36.662Z,55.80
2018-06-24T21:34:05.329Z,56.50
2018-06-24T21:36:33.826Z,56.90
2018-06-24T21:39:02.339Z,57.40
2018-06-24T21:43:59.022Z,58.20
2018-06-24T21:46:27.601Z,59.10
2018-06-24T21:48:56.101Z,59.00
2018-06-24T21:51:24.617Z,59.30
2018-06-24T21:53:53.149Z,59.70
2018-06-24T21:56:21.677Z,60.50
2018-06-24T21:58:50.164Z,61.70
2018-06-24T22:01:18.741Z,62.50
2018-06-24T22:03:47.243Z,62.80
2018-06-24T22:06:16.057Z,63.10
2018-06-24T22:08:44.833Z,63.80
2018-06-24T22:16:09.782Z,66.20
2018-06-24T22:18:38.285Z,66.40
2018-06-24T22:21:06.989Z,66.30
2018-06-24T22:23:35.511Z,66.20
2018-06-24T22:28:32.211Z,67.70
2018-06-24T22:31:00.726Z,68.60
2018-06-24T22:33:29.286Z,70.20
2018-06-24T22:35:57.822Z,71.50
2018-06-24T22:38:26.353Z,72.80
2018-06-24T22:40:55.086Z,75.00
2018-06-24T22:45:52.569Z,75.20
2018-06-24T22:48:21.085Z,76.30
2018-06-24T22:50:49.621Z,75.50
2018-06-24T22:55:46.502Z,80.30
2018-06-24T22:58:15.021Z,81.30
2018-06-24T23:00:43.554Z,80.70
2018-06-24T23:03:12.061Z,81.20
2018-06-24T23:05:40.569Z,80.60
2018-06-24T23:08:09.069Z,81.10
2018-06-24T23:10:37.614Z,82.20
2018-06-24T23:13:06.674Z,84.40
2018-06-24T23:18:03.353Z,81.50
2018-06-24T23:20:31.882Z,82.40
2018-06-24T23:23:00.434Z,83.80
2018-06-24T23:25:29.310Z,84.90
2018-06-24T23:27:57.817Z,85.50
2018-06-24T23:30:26.330Z,85.90
2018-06-24T23:32:54.865Z,86.90
2018-06-24T23:35:23.369Z,87.60
2018-06-24T23:37:51.886Z,87.70
2018-06-24T23:40:20.386Z,87.20
2018-06-24T23:42:48.940Z,88.60
2018-06-24T23:45:17.508Z,89.70
2018-06-24T23:47:46.005Z,89.30
2018-06-24T23:50:14.525Z,88.50
2018-06-24T23:52:43.041Z,87.30
2018-06-24T23:55:11.602Z,86.50
2018-06-24T23:57:40.108Z,86.10
